createdAt,value
2022-10-14T00:01:15.562Z,100552.78
2022-10-14T00:03:43.087Z,100551.31
2022-10-14T00:06:13.166Z,100555.56
2022-10-14T00:08:40.468Z,100555.47
2022-10-14T00:11:17.342Z,100560.91
2022-10-14T00:13:44.040Z,100562.22
2022-10-14T00:16:23.204Z,100553.72
2022-10-14T00:18:50.756Z,100553.41
2022-10-14T00:21:17.954Z,100549.63
2022-10-14T00:23:45.324Z,100547.06
2022-10-14T00:26:27.005Z,100551.34
2022-10-14T00:28:54.187Z,100549.75
2022-10-14T00:31:21.619Z,100545.56
2022-10-14T00:33:48.899Z,100547.97
2022-10-14T00:36:18.375Z,100547.75
2022-10-14T00:38:45.719Z,100543.84
2022-10-14T00:41:16.413Z,100546.69
2022-10-14T00:44:08.452Z,100551.47
2022-10-14T00:46:37.753Z,100542.53
2022-10-14T00:49:09.126Z,100552.22
2022-10-14T00:51:37.024Z,100552.66
2022-10-14T00:54:04.572Z,100546.81
2022-10-14T00:56:32.143Z,100545.91
2022-10-14T00:59:02.231Z,100538.84
2022-10-14T01:01:28.886Z,100545.22
2022-10-14T01:03:55.617Z,100539.41
2022-10-14T01:07:02.255Z,100538.19
2022-10-14T01:09:36.069Z,100535.22
2022-10-14T01:12:27.917Z,100540.69
2022-10-14T01:15:04.930Z,100537.72
2022-10-14T01:17:53.434Z,100530.09
2022-10-14T01:20:28.926Z,100527.13
2022-10-14T01:23:19.817Z,100533.38
2022-10-14T01:26:17.535Z,100531.09
2022-10-14T01:28:55.805Z,100523.44
2022-10-14T01:31:28.167Z,100534.09
2022-10-14T01:33:58.322Z,100530.13
2022-10-14T01:36:33.869Z,100527.63
2022-10-14T01:39:17.830Z,100517.13
2022-10-14T01:42:17.418Z,100519.84
2022-10-14T01:44:53.297Z,100516.97
2022-10-14T01:47:21.880Z,100512.09
2022-10-14T01:49:57.307Z,100508.59
2022-10-14T01:52:28.465Z,100508.41
2022-10-14T01:54:59.959Z,100504.66
2022-10-14T01:57:29.645Z,100511.28
2022-10-14T01:59:58.205Z,100513.75
2022-10-14T02:02:25.702Z,100505.81
2022-10-14T02:04:52.417Z,100508.31
2022-10-14T02:07:34.439Z,100505.63
2022-10-14T02:10:06.990Z,100507.94
2022-10-14T02:12:45.714Z,100495.81
2022-10-14T02:15:33.410Z,100501.06
2022-10-14T02:18:09.881Z,100505.66
2022-10-14T02:20:42.422Z,100500.06
2022-10-14T02:23:39.562Z,100501.34
2022-10-14T02:26:08.184Z,100506.75
2022-10-14T02:28:37.094Z,100504.66
2022-10-14T02:31:08.115Z,100510.69
2022-10-14T02:33:40.589Z,100508.03
2022-10-14T02:36:11.484Z,100505.91
2022-10-14T02:38:40.269Z,100507.19
2022-10-14T02:41:14.462Z,100496.09
2022-10-14T02:43:41.032Z,100497.97
2022-10-14T02:46:08.337Z,100500.06
2022-10-14T02:48:34.965Z,100492.97
2022-10-14T02:51:02.857Z,100490.84
2022-10-14T02:53:30.627Z,100496.72
2022-10-14T02:55:58.441Z,100493.41
2022-10-14T02:58:25.594Z,100489.22
2022-10-14T03:00:52.794Z,100493.41
2022-10-14T03:03:20.182Z,100483.59
2022-10-14T03:05:47.027Z,100483.34
2022-10-14T03:08:15.359Z,100488.41
2022-10-14T03:10:46.337Z,100491.53
2022-10-14T03:13:12.869Z,100494.22
2022-10-14T03:15:42.980Z,100486.31
2022-10-14T03:18:10.987Z,100489.22
2022-10-14T03:20:45.037Z,100487.75
2022-10-14T03:23:14.563Z,100485.69
2022-10-14T03:25:45.412Z,100488.41
2022-10-14T03:28:18.162Z,100489.59
2022-10-14T03:31:01.827Z,100473.31
2022-10-14T03:33:41.802Z,100479.34
2022-10-14T03:36:12.671Z,100481.06
2022-10-14T03:38:45.667Z,100474.38
2022-10-14T03:41:22.208Z,100475.41
2022-10-14T03:43:48.841Z,100472.13
2022-10-14T03:46:16.761Z,100475.41
2022-10-14T03:48:43.434Z,100471.69
2022-10-14T03:51:10.115Z,100475.00
2022-10-14T03:53:36.986Z,100466.66
2022-10-14T03:56:04.849Z,100463.09
2022-10-14T03:58:32.638Z,100460.19
2022-10-14T04:01:04.550Z,100455.78
2022-10-14T04:03:51.935Z,100455.38
2022-10-14T04:06:18.503Z,100457.47
2022-10-14T04:08:45.118Z,100462.47
2022-10-14T04:11:21.166Z,100451.44
2022-10-14T04:13:49.794Z,100461.25
2022-10-14T04:16:16.384Z,100467.50
2022-10-14T04:18:58.459Z,100455.19
2022-10-14T04:21:25.267Z,100466.22
2022-10-14T04:23:52.896Z,100466.19
2022-10-14T04:26:31.235Z,100468.28
2022-10-14T04:28:58.442Z,100456.88
2022-10-14T04:31:33.869Z,100457.88
2022-10-14T04:34:02.738Z,100453.91
2022-10-14T04:36:34.919Z,100459.16
2022-10-14T04:39:03.645Z,100459.38
2022-10-14T04:41:30.232Z,100462.91
2022-10-14T04:44:00.320Z,100462.50
2022-10-14T04:46:32.559Z,100464.97
2022-10-14T04:49:00.054Z,100466.25
2022-10-14T04:51:31.799Z,100461.25
2022-10-14T04:54:24.948Z,100460.84
2022-10-14T04:56:55.570Z,100461.13
2022-10-14T04:59:22.345Z,100458.91
2022-10-14T05:01:57.586Z,100454.00
2022-10-14T05:04:32.662Z,100456.53
2022-10-14T05:07:00.567Z,100456.97
2022-10-14T05:09:28.241Z,100455.59
2022-10-14T05:11:55.070Z,100457.28
2022-10-14T05:14:29.733Z,100454.56
2022-10-14T05:17:08.045Z,100458.53
2022-10-14T05:19:35.275Z,100450.16
2022-10-14T05:22:01.949Z,100459.75
2022-10-14T05:24:36.316Z,100441.97
2022-10-14T05:27:03.430Z,100448.38
2022-10-14T05:29:30.992Z,100441.41
2022-10-14T05:31:58.993Z,100449.09
2022-10-14T05:34:37.384Z,100449.94
2022-10-14T05:37:07.072Z,100447.06
2022-10-14T05:39:41.086Z,100450.75
2022-10-14T05:42:07.811Z,100462.84
2022-10-14T05:44:35.073Z,100458.13
2022-10-14T05:47:02.843Z,100441.69
2022-10-14T05:49:29.443Z,100453.50
2022-10-14T05:51:57.915Z,100447.28
2022-10-14T05:54:24.883Z,100443.53
2022-10-14T05:56:54.067Z,100435.41
2022-10-14T05:59:23.014Z,100438.50
2022-10-14T06:01:49.529Z,100428.13
2022-10-14T06:04:20.393Z,100433.94
2022-10-14T06:06:47.035Z,100431.63
2022-10-14T06:09:15.296Z,100436.41
2022-10-14T06:11:42.315Z,100439.44
2022-10-14T06:14:09.302Z,100440.19
2022-10-14T06:16:36.275Z,100440.56
2022-10-14T06:19:05.598Z,100439.38
2022-10-14T06:21:32.565Z,100439.78
2022-10-14T06:23:59.340Z,100441.44
2022-10-14T06:26:26.004Z,100434.13
2022-10-14T06:28:52.586Z,100439.63
2022-10-14T06:31:19.334Z,100445.03
2022-10-14T06:33:45.906Z,100448.41
2022-10-14T06:36:12.850Z,100447.88
2022-10-14T06:38:40.409Z,100443.81
2022-10-14T06:41:07.009Z,100448.09
2022-10-14T06:43:35.526Z,100450.69
2022-10-14T06:46:03.581Z,100453.69
2022-10-14T06:48:30.209Z,100442.66
2022-10-14T06:51:01.096Z,100445.38
2022-10-14T06:53:28.707Z,100452.66
2022-10-14T06:56:03.720Z,100447.66
2022-10-14T06:58:31.228Z,100451.03
2022-10-14T07:01:03.054Z,100457.69
2022-10-14T07:03:30.422Z,100445.59
2022-10-14T07:05:57.126Z,100448.91
2022-10-14T07:08:23.991Z,100446.00
2022-10-14T07:10:50.530Z,100453.09
2022-10-14T07:13:17.046Z,100448.72
2022-10-14T07:15:47.952Z,100448.94
2022-10-14T07:18:14.779Z,100453.13
2022-10-14T07:20:41.452Z,100446.00
2022-10-14T07:23:08.008Z,100449.97
2022-10-14T07:25:34.539Z,100456.59
2022-10-14T07:28:01.201Z,100449.53
2022-10-14T07:30:27.739Z,100440.69
2022-10-14T07:32:55.210Z,100444.53
2022-10-14T07:35:21.970Z,100447.47
2022-10-14T07:37:50.400Z,100446.84
2022-10-14T07:40:17.157Z,100451.63
2022-10-14T07:42:43.657Z,100453.28
2022-10-14T07:45:15.918Z,100453.75
2022-10-14T07:47:43.849Z,100454.25
2022-10-14T07:50:11.494Z,100451.28
2022-10-14T07:52:38.532Z,100459.41
2022-10-14T07:55:06.050Z,100451.50
2022-10-14T07:57:33.221Z,100472.72
2022-10-14T08:00:00.292Z,100473.56
2022-10-14T08:02:26.885Z,100474.53
2022-10-14T08:05:04.160Z,100475.19
2022-10-14T08:07:39.900Z,100470.94
2022-10-14T08:10:07.035Z,100469.09
2022-10-14T08:12:33.731Z,100468.06
2022-10-14T08:15:00.382Z,100465.97
2022-10-14T08:17:26.956Z,100464.41
2022-10-14T08:19:54.138Z,100450.56
2022-10-14T08:22:20.943Z,100449.94
2022-10-14T08:24:50.033Z,100455.81
2022-10-14T08:27:17.938Z,100454.00
2022-10-14T08:29:44.430Z,100449.41
2022-10-14T08:32:10.928Z,100446.00
2022-10-14T08:34:37.470Z,100444.09
2022-10-14T08:37:04.017Z,100451.31
2022-10-14T08:39:30.577Z,100450.00
2022-10-14T08:42:19.273Z,100447.09
2022-10-14T08:44:53.341Z,100454.47
2022-10-14T08:47:35.318Z,100450.47
2022-10-14T08:50:07.474Z,100452.41
2022-10-14T08:52:58.998Z,100446.19
2022-10-14T08:55:43.373Z,100444.13
2022-10-14T08:58:31.758Z,100446.34
2022-10-14T09:01:04.257Z,100450.63
2022-10-14T09:03:34.707Z,100454.19
2022-10-14T09:06:05.691Z,100450.56
2022-10-14T09:08:45.336Z,100440.81
2022-10-14T09:11:18.414Z,100437.13
2022-10-14T09:13:48.670Z,100430.41
2022-10-14T09:16:49.257Z,100426.44
2022-10-14T09:19:53.702Z,100427.81
2022-10-14T09:22:20.808Z,100427.50
2022-10-14T09:24:48.451Z,100426.31
2022-10-14T09:27:22.091Z,100423.03
2022-10-14T09:30:00.415Z,100417.03
2022-10-14T09:32:34.606Z,100419.72
2022-10-14T09:35:02.685Z,100410.69
2022-10-14T09:37:34.471Z,100415.50
2022-10-14T09:40:08.637Z,100411.97
2022-10-14T09:43:02.981Z,100407.34
2022-10-14T09:45:46.074Z,100405.03
2022-10-14T09:48:18.017Z,100407.22
2022-10-14T09:50:51.641Z,100402.94
2022-10-14T09:53:31.575Z,100403.03
2022-10-14T09:56:01.254Z,100395.94
2022-10-14T09:58:53.560Z,100392.75
2022-10-14T10:01:22.502Z,100383.19
2022-10-14T10:03:50.653Z,100388.03
2022-10-14T10:06:21.146Z,100380.56
2022-10-14T10:08:53.539Z,100379.69
2022-10-14T10:11:33.677Z,100374.09
2022-10-14T10:14:21.224Z,100376.22
2022-10-14T10:19:29.694Z,100368.72
2022-10-14T10:22:16.925Z,100381.47
2022-10-14T10:24:45.022Z,100359.72
2022-10-14T10:27:29.275Z,100363.53
2022-10-14T10:29:56.163Z,100358.28
2022-10-14T10:32:42.429Z,100361.63
2022-10-14T10:35:48.002Z,100366.06
2022-10-14T10:38:53.090Z,100370.97
2022-10-14T10:41:44.306Z,100354.38
2022-10-14T10:44:19.698Z,100353.31
2022-10-14T10:46:52.269Z,100350.94
2022-10-14T10:49:50.378Z,100346.50
2022-10-14T10:52:41.068Z,100350.25
2022-10-14T10:55:26.081Z,100351.66
2022-10-14T10:58:27.865Z,100350.28
2022-10-14T11:01:13.337Z,100339.66
2022-10-14T11:04:21.402Z,100340.75
2022-10-14T11:07:25.348Z,100335.94
2022-10-14T11:10:22.405Z,100326.88
2022-10-14T11:13:36.340Z,100317.22
2022-10-14T11:16:07.519Z,100313.53
2022-10-14T11:18:56.380Z,100308.97
2022-10-14T11:21:35.336Z,100316.59
2022-10-14T11:24:32.834Z,100319.25
2022-10-14T11:27:14.417Z,100312.75
2022-10-14T11:30:10.276Z,100303.25
2022-10-14T11:32:51.505Z,100303.69
2022-10-14T11:35:24.972Z,100303.03
2022-10-14T11:38:10.974Z,100311.81
2022-10-14T11:40:59.339Z,100307.03
2022-10-14T11:43:43.954Z,100298.22
2022-10-14T11:46:14.529Z,100307.66
2022-10-14T11:49:01.487Z,100294.94
2022-10-14T11:51:36.360Z,100288.31
2022-10-14T11:54:14.869Z,100292.09
2022-10-14T11:56:46.460Z,100284.88
2022-10-14T11:59:37.777Z,100287.00
2022-10-14T12:02:17.846Z,100295.75
2022-10-14T12:04:49.806Z,100285.91
2022-10-14T12:07:26.896Z,100282.06
2022-10-14T12:10:02.591Z,100280.66
2022-10-14T12:12:30.636Z,100277.53
2022-10-14T12:15:05.797Z,100275.69
2022-10-14T12:17:38.650Z,100274.72
2022-10-14T12:20:14.256Z,100273.41
2022-10-14T12:22:41.226Z,100269.44
2022-10-14T12:25:17.590Z,100265.78
2022-10-14T12:27:44.643Z,100265.94
2022-10-14T12:30:34.897Z,100263.59
2022-10-14T12:33:05.773Z,100254.44
2022-10-14T12:35:52.775Z,100252.44
2022-10-14T12:38:21.322Z,100253.41
2022-10-14T12:40:49.157Z,100256.78
2022-10-14T12:43:21.493Z,100246.78
2022-10-14T12:46:01.705Z,100232.47
2022-10-14T12:48:36.014Z,100238.50
2022-10-14T12:51:21.912Z,100233.56
2022-10-14T12:53:54.259Z,100229.56
2022-10-14T12:56:33.302Z,100224.16
2022-10-14T12:59:02.759Z,100219.00
2022-10-14T13:01:33.774Z,100215.47
2022-10-14T13:04:07.340Z,100210.75
2022-10-14T13:06:42.269Z,100210.41
2022-10-14T13:09:11.603Z,100212.00
2022-10-14T13:11:53.485Z,100202.94
2022-10-14T13:14:27.355Z,100202.41
2022-10-14T13:17:02.607Z,100190.06
2022-10-14T13:19:35.088Z,100193.88
2022-10-14T13:22:22.808Z,100191.97
2022-10-14T13:24:49.351Z,100185.59
2022-10-14T13:27:30.024Z,100175.53
2022-10-14T13:30:02.692Z,100171.72
2022-10-14T13:32:43.840Z,100165.09
2022-10-14T13:35:22.684Z,100165.22
2022-10-14T13:38:01.983Z,100167.44
2022-10-14T13:40:34.824Z,100162.91
2022-10-14T13:43:08.496Z,100163.66
2022-10-14T13:45:42.187Z,100165.19
2022-10-14T13:48:19.805Z,100162.47
2022-10-14T13:50:50.291Z,100148.63
2022-10-14T13:53:19.266Z,100145.66
2022-10-14T13:55:54.509Z,100142.38
2022-10-14T13:58:23.695Z,100145.56
2022-10-14T14:00:59.230Z,100139.88
2022-10-14T14:03:30.918Z,100139.38
2022-10-14T14:05:59.143Z,100132.22
2022-10-14T14:08:39.897Z,100126.63
2022-10-14T14:11:16.693Z,100121.50
2022-10-14T14:13:53.396Z,100118.28
2022-10-14T14:19:38.020Z,100121.13
2022-10-14T14:22:30.464Z,100118.41
2022-10-14T14:25:34.051Z,100125.31
2022-10-14T14:28:13.874Z,100113.53
2022-10-14T14:30:50.673Z,100102.25
2022-10-14T14:33:35.560Z,100094.91
2022-10-14T14:36:04.425Z,100102.75
2022-10-14T14:38:34.956Z,100087.59
2022-10-14T14:41:16.603Z,100081.63
2022-10-14T14:43:53.306Z,100074.59
2022-10-14T14:46:34.680Z,100074.94
2022-10-14T14:49:02.665Z,100071.38
2022-10-14T14:51:35.491Z,100068.72
2022-10-14T14:54:02.434Z,100070.97
2022-10-14T14:56:43.678Z,100071.03
2022-10-14T14:59:19.772Z,100065.47
2022-10-14T15:01:46.426Z,100071.16
2022-10-14T15:04:25.267Z,100072.31
2022-10-14T15:06:59.294Z,100071.59
2022-10-14T15:10:05.838Z,100065.38
2022-10-14T15:12:39.233Z,100066.00
2022-10-14T15:15:26.718Z,100053.59
2022-10-14T15:18:07.518Z,100049.09
2022-10-14T15:20:36.759Z,100048.88
2022-10-14T15:23:42.669Z,100050.16
2022-10-14T15:26:28.010Z,100048.91
2022-10-14T15:32:12.903Z,100041.53
2022-10-14T15:34:40.431Z,100044.06
2022-10-14T15:37:12.981Z,100040.13
2022-10-14T15:39:39.515Z,100043.13
2022-10-14T15:42:11.903Z,100031.44
2022-10-14T15:44:38.605Z,100034.97
2022-10-14T15:47:21.177Z,100026.16
2022-10-14T15:49:47.846Z,100020.16
2022-10-14T15:52:16.525Z,100016.72
2022-10-14T15:54:45.737Z,100015.03
2022-10-14T15:57:16.670Z,100016.63
2022-10-14T15:59:47.707Z,100017.66
2022-10-14T16:02:27.304Z,100011.06
2022-10-14T16:05:18.831Z,100010.69
2022-10-14T16:07:41.218Z,100002.50
2022-10-14T16:10:11.430Z,99993.69
2022-10-14T16:12:38.014Z,99997.78
2022-10-14T16:15:19.588Z,99996.50
2022-10-14T16:17:48.769Z,100009.16
2022-10-14T16:20:18.500Z,99993.81
2022-10-14T16:22:45.066Z,99995.38
2022-10-14T16:25:20.043Z,99983.28
2022-10-14T16:27:46.623Z,99985.25
2022-10-14T16:30:13.706Z,99983.88
2022-10-14T16:32:40.319Z,99987.88
2022-10-14T16:35:09.424Z,99979.59
2022-10-14T16:37:39.052Z,99972.75
2022-10-14T16:40:06.925Z,99975.81
2022-10-14T16:42:33.477Z,99964.53
2022-10-14T16:45:00.392Z,99970.94
2022-10-14T16:47:28.182Z,99967.31
2022-10-14T16:49:54.993Z,99962.97
2022-10-14T16:52:21.928Z,99966.22
2022-10-14T16:54:48.833Z,99956.56
2022-10-14T16:57:15.618Z,99955.25
2022-10-14T16:59:42.238Z,99957.91
2022-10-14T17:02:14.700Z,99950.69
2022-10-14T17:04:42.096Z,99953.69
2022-10-14T17:07:09.987Z,99950.50
2022-10-14T17:09:36.949Z,99952.84
2022-10-14T17:12:08.035Z,99951.50
2022-10-14T17:14:37.839Z,99946.69
2022-10-14T17:17:04.425Z,99946.88
2022-10-14T17:19:31.111Z,99949.25
2022-10-14T17:21:57.662Z,99948.13
2022-10-14T17:24:24.298Z,99956.25
2022-10-14T17:26:53.051Z,99949.75
2022-10-14T17:29:20.727Z,99949.25
2022-10-14T17:31:49.861Z,99946.97
2022-10-14T17:34:16.506Z,99948.34
2022-10-14T17:36:43.081Z,99954.91
2022-10-14T17:39:16.408Z,99955.75
2022-10-14T17:41:48.008Z,99953.03
2022-10-14T17:44:14.675Z,99944.41
2022-10-14T17:46:41.329Z,99943.19
2022-10-14T17:49:10.804Z,99933.75
2022-10-14T17:51:38.233Z,99940.66
2022-10-14T17:54:07.582Z,99939.25
2022-10-14T17:56:36.444Z,99943.88
2022-10-14T17:59:10.364Z,99934.38
2022-10-14T18:01:37.908Z,99931.56
2022-10-14T18:04:17.328Z,99929.84
2022-10-14T18:06:45.256Z,99922.25
2022-10-14T18:09:12.505Z,99931.66
2022-10-14T18:12:07.781Z,99924.00
2022-10-14T18:14:30.071Z,99926.81
2022-10-14T18:16:56.647Z,99924.59
2022-10-14T18:19:23.208Z,99920.00
2022-10-14T18:21:51.532Z,99920.50
2022-10-14T18:24:18.134Z,99918.41
2022-10-14T18:26:44.675Z,99910.25
2022-10-14T18:29:11.274Z,99904.28
2022-10-14T18:31:39.222Z,99900.16
2022-10-14T18:34:07.693Z,99898.47
2022-10-14T18:36:34.329Z,99900.56
2022-10-14T18:39:04.354Z,99902.41
2022-10-14T18:41:31.162Z,99897.91
2022-10-14T18:43:58.233Z,99904.22
2022-10-14T18:46:27.499Z,99906.34
2022-10-14T18:48:55.742Z,99916.53
2022-10-14T18:51:28.924Z,99909.34
2022-10-14T18:54:01.854Z,99907.28
2022-10-14T18:56:31.677Z,99907.94
2022-10-14T18:59:01.545Z,99903.34
2022-10-14T19:01:29.330Z,99893.50
2022-10-14T19:03:56.552Z,99896.72
2022-10-14T19:06:23.630Z,99897.94
2022-10-14T19:08:50.992Z,99900.66
2022-10-14T19:11:22.613Z,99886.63
2022-10-14T19:13:51.875Z,99892.22
2022-10-14T19:16:19.622Z,99882.06
2022-10-14T19:18:46.840Z,99882.66
2022-10-14T19:21:15.869Z,99877.88
2022-10-14T19:23:43.732Z,99874.34
2022-10-14T19:26:14.413Z,99869.84
2022-10-14T19:28:41.918Z,99872.41
2022-10-14T19:31:14.783Z,99865.63
2022-10-14T19:33:44.034Z,99862.75
2022-10-14T19:36:17.381Z,99861.22
2022-10-14T19:38:51.274Z,99854.88
2022-10-14T19:41:18.817Z,99858.81
2022-10-14T19:43:45.690Z,99849.53
2022-10-14T19:46:13.942Z,99847.66
2022-10-14T19:48:41.018Z,99842.06
2022-10-14T19:51:09.995Z,99842.09
2022-10-14T19:53:38.482Z,99827.94
2022-10-14T19:56:10.754Z,99832.31
2022-10-14T19:58:40.928Z,99822.88
2022-10-14T20:01:17.545Z,99829.16
2022-10-14T20:03:44.464Z,99832.69
2022-10-14T20:06:12.785Z,99827.06
2022-10-14T20:08:40.034Z,99824.34
2022-10-14T20:11:08.971Z,99816.25
2022-10-14T20:13:37.530Z,99813.47
2022-10-14T20:16:06.314Z,99820.19
2022-10-14T20:18:33.193Z,99806.69
2022-10-14T20:21:05.240Z,99807.44
2022-10-14T20:23:34.998Z,99809.47
2022-10-14T20:26:03.908Z,99801.56
2022-10-14T20:28:30.611Z,99805.22
2022-10-14T20:30:57.497Z,99801.97
2022-10-14T20:33:24.618Z,99784.97
2022-10-14T20:36:12.012Z,99791.34
2022-10-14T20:38:39.229Z,99791.53
2022-10-14T20:41:14.159Z,99800.06
2022-10-14T20:43:41.912Z,99801.84
2022-10-14T20:46:08.941Z,99796.13
2022-10-14T20:48:37.298Z,99792.16
2022-10-14T20:51:09.677Z,99790.25
2022-10-14T20:53:36.483Z,99798.31
2022-10-14T20:56:08.430Z,99796.19
2022-10-14T20:58:35.386Z,99791.59
2022-10-14T21:01:07.627Z,99799.81
2022-10-14T21:03:34.540Z,99795.56
2022-10-14T21:06:03.194Z,99786.88
2022-10-14T21:08:30.067Z,99784.00
2022-10-14T21:11:01.114Z,99792.88
2022-10-14T21:13:28.735Z,99782.88
2022-10-14T21:15:56.330Z,99788.19
2022-10-14T21:18:23.041Z,99785.97
2022-10-14T21:20:50.372Z,99770.72
2022-10-14T21:23:17.802Z,99767.25
2022-10-14T21:25:44.751Z,99776.44
2022-10-14T21:28:11.318Z,99779.38
2022-10-14T21:30:41.474Z,99777.44
2022-10-14T21:33:07.971Z,99769.41
2022-10-14T21:35:34.531Z,99766.38
2022-10-14T21:38:01.115Z,99772.22
2022-10-14T21:40:27.653Z,99764.13
2022-10-14T21:42:54.227Z,99763.69
2022-10-14T21:45:21.020Z,99764.81
2022-10-14T21:47:47.632Z,99765.53
2022-10-14T21:50:14.302Z,99755.97
2022-10-14T21:52:41.419Z,99763.09
2022-10-14T21:55:08.442Z,99753.34
2022-10-14T21:57:35.001Z,99757.91
2022-10-14T22:00:01.585Z,99765.88
2022-10-14T22:02:28.148Z,99771.41
2022-10-14T22:04:54.678Z,99765.66
2022-10-14T22:07:21.438Z,99768.63
2022-10-14T22:09:48.589Z,99752.59
2022-10-14T22:12:16.577Z,99758.44
2022-10-14T22:14:43.203Z,99756.69
2022-10-14T22:17:09.848Z,99748.53
2022-10-14T22:19:36.377Z,99749.66
2022-10-14T22:22:03.991Z,99753.84
2022-10-14T22:24:31.311Z,99749.91
2022-10-14T22:26:57.826Z,99749.41
2022-10-14T22:29:25.452Z,99746.88
2022-10-14T22:31:51.991Z,99745.78
2022-10-14T22:34:18.570Z,99742.28
2022-10-14T22:36:45.552Z,99749.91
2022-10-14T22:39:16.316Z,99747.34
2022-10-14T22:41:42.869Z,99740.09
2022-10-14T22:44:10.083Z,99744.41
2022-10-14T22:46:38.172Z,99751.22
2022-10-14T22:49:05.221Z,99753.88
2022-10-14T22:51:35.461Z,99752.03
2022-10-14T22:54:02.650Z,99736.28
2022-10-14T22:56:30.682Z,99743.03
2022-10-14T22:59:09.513Z,99744.09
2022-10-14T23:01:36.827Z,99744.56
2022-10-14T23:04:04.344Z,99749.38
2022-10-14T23:06:31.838Z,99748.41
2022-10-14T23:09:00.458Z,99748.34
2022-10-14T23:11:28.483Z,99741.09
2022-10-14T23:13:55.624Z,99733.00
2022-10-14T23:16:24.900Z,99729.09
2022-10-14T23:18:52.556Z,99733.09
2022-10-14T23:21:27.914Z,99736.03
2022-10-14T23:23:57.085Z,99736.78
2022-10-14T23:26:26.475Z,99741.63
2022-10-14T23:28:55.431Z,99732.94
2022-10-14T23:31:24.961Z,99733.72
2022-10-14T23:33:52.375Z,99727.84
2022-10-14T23:36:21.510Z,99731.22
2022-10-14T23:38:48.781Z,99728.03
2022-10-14T23:41:15.515Z,99735.72
2022-10-14T23:43:42.854Z,99743.66
2022-10-14T23:46:09.913Z,99751.09
2022-10-14T23:48:37.096Z,99738.53
2022-10-14T23:51:04.245Z,99740.63
2022-10-14T23:53:31.331Z,99744.72
2022-10-14T23:55:58.172Z,99742.16
2022-10-14T23:58:28.604Z,99740.94
